sensor_id;sensor_type;location;lat;lon;timestamp;pressure;altitude;pressure_sealevel;temperature;humidity
14800;BME280;7491;57.750;11.970;2023-08-07T00:01:16;74178.75;;;-142.11;100.00
14800;BME280;7491;57.750;11.970;2023-08-07T00:03:44;74170.59;;;-142.11;100.00
14800;BME280;7491;57.750;11.970;2023-08-07T00:06:12;74162.44;;;-142.11;100.00
14800;BME280;7491;57.750;11.970;2023-08-07T00:08:39;74152.25;;;-142.11;100.00
14800;BME280;7491;57.750;11.970;2023-08-07T00:11:06;74129.84;;;-142.11;100.00
14800;BME280;7491;57.750;11.970;2023-08-07T09:35:34;73268.19;;;-142.11;100.00
14800;BME280;7491;57.750;11.970;2023-08-07T09:38:01;73260.03;;;-142.11;100.00
14800;BME280;7491;57.750;11.970;2023-08-07T09:40:29;73260.03;;;-142.11;100.00
14800;BME280;7491;57.750;11.970;2023-08-07T09:42:56;73258.00;;;-142.11;100.00
14800;BME280;7491;57.750;11.970;2023-08-07T09:45:24;73258.00;;;-142.11;100.00
14800;BME280;7491;57.750;11.970;2023-08-07T09:47:58;73255.97;;;-142.11;100.00
14800;BME280;7491;57.750;11.970;2023-08-07T09:50:29;73253.91;;;-142.11;100.00
14800;BME280;7491;57.750;11.970;2023-08-07T09:52:57;73264.09;;;-142.11;100.00
14800;BME280;7491;57.750;11.970;2023-08-07T09:55:24;73247.81;;;-142.11;100.00
14800;BME280;7491;57.750;11.970;2023-08-07T09:57:51;73249.84;;;-142.11;100.00
14800;BME280;7491;57.750;11.970;2023-08-07T10:00:19;73233.56;;;-142.11;100.00
14800;BME280;7491;57.750;11.970;2023-08-07T10:02:46;73229.47;;;-142.11;100.00
14800;BME280;7491;57.750;11.970;2023-08-07T10:05:14;73229.47;;;-142.11;100.00
14800;BME280;7491;57.750;11.970;2023-08-07T10:07:42;73231.50;;;-142.11;100.00
14800;BME280;7491;57.750;11.970;2023-08-07T10:10:10;73221.34;;;-142.11;100.00
14800;BME280;7491;57.750;11.970;2023-08-07T10:12:37;73217.25;;;-142.11;100.00
14800;BME280;7491;57.750;11.970;2023-08-07T10:15:08;73203.00;;;-142.11;100.00
14800;BME280;7491;57.750;11.970;2023-08-07T10:17:35;73198.94;;;-142.11;100.00
14800;BME280;7491;57.750;11.970;2023-08-07T10:20:02;73207.06;;;-142.11;100.00
14800;BME280;7491;57.750;11.970;2023-08-07T10:22:30;73211.16;;;-142.11;100.00
14800;BME280;7491;57.750;11.970;2023-08-07T10:25:01;73203.00;;;-142.11;100.00
14800;BME280;7491;57.750;11.970;2023-08-07T10:27:31;73188.75;;;-142.11;100.00
14800;BME280;7491;57.750;11.970;2023-08-07T10:30:00;73180.59;;;-142.11;100.00
14800;BME280;7491;57.750;11.970;2023-08-07T10:32:28;73184.66;;;-142.11;100.00
14800;BME280;7491;57.750;11.970;2023-08-07T10:34:55;73172.44;;;-142.11;100.00
14800;BME280;7491;57.750;11.970;2023-08-07T10:37:41;73174.47;;;-142.11;100.00
14800;BME280;7491;57.750;11.970;2023-08-07T10:40:10;73170.41;;;-142.11;100.00
14800;BME280;7491;57.750;11.970;2023-08-07T10:42:57;73170.41;;;-142.11;100.00
14800;BME280;7491;57.750;11.970;2023-08-07T10:45:25;73162.25;;;-142.11;100.00
14800;BME280;7491;57.750;11.970;2023-08-07T10:48:02;73166.34;;;-142.11;100.00
14800;BME280;7491;57.750;11.970;2023-08-07T10:50:29;73160.22;;;-142.11;100.00
14800;BME280;7491;57.750;11.970;2023-08-07T10:53:00;73160.22;;;-142.11;100.00
14800;BME280;7491;57.750;11.970;2023-08-07T10:55:26;73162.25;;;-142.11;100.00
14800;BME280;7491;57.750;11.970;2023-08-07T10:57:59;73156.16;;;-142.11;100.00
14800;BME280;7491;57.750;11.970;2023-08-07T11:00:26;73158.19;;;-142.11;100.00
14800;BME280;7491;57.750;11.970;2023-08-07T11:02:53;73158.19;;;-142.11;100.00
14800;BME280;7491;57.750;11.970;2023-08-07T11:05:20;73156.16;;;-142.11;100.00
14800;BME280;7491;57.750;11.970;2023-08-07T11:07:51;73156.16;;;-142.11;100.00
14800;BME280;7491;57.750;11.970;2023-08-07T11:10:20;73168.38;;;-142.11;100.00
14800;BME280;7491;57.750;11.970;2023-08-07T11:12:46;73156.16;;;-142.11;100.00
14800;BME280;7491;57.750;11.970;2023-08-07T11:15:14;73152.09;;;-142.11;100.00
14800;BME280;7491;57.750;11.970;2023-08-07T11:17:41;73143.94;;;-142.11;100.00
14800;BME280;7491;57.750;11.970;2023-08-07T11:20:09;73139.88;;;-142.11;100.00
14800;BME280;7491;57.750;11.970;2023-08-07T11:22:38;73137.81;;;-142.11;100.00
14800;BME280;7491;57.750;11.970;2023-08-07T11:25:06;73148.00;;;-142.11;100.00
14800;BME280;7491;57.750;11.970;2023-08-07T11:27:39;73131.72;;;-142.11;100.00
14800;BME280;7491;57.750;11.970;2023-08-07T11:30:11;73137.81;;;-142.11;100.00
14800;BME280;7491;57.750;11.970;2023-08-07T11:32:39;73131.72;;;-142.11;100.00
14800;BME280;7491;57.750;11.970;2023-08-07T11:35:07;73129.69;;;-142.11;100.00
14800;BME280;7491;57.750;11.970;2023-08-07T11:37:34;73113.38;;;-142.11;100.00
14800;BME280;7491;57.750;11.970;2023-08-07T11:40:01;73123.56;;;-142.11;100.00
14800;BME280;7491;57.750;11.970;2023-08-07T11:42:28;73111.34;;;-142.11;100.00
14800;BME280;7491;57.750;11.970;2023-08-07T11:44:55;73115.41;;;-142.11;100.00
14800;BME280;7491;57.750;11.970;2023-08-07T11:47:22;73109.31;;;-142.11;100.00
14800;BME280;7491;57.750;11.970;2023-08-07T11:49:52;73109.31;;;-142.11;100.00
14800;BME280;7491;57.750;11.970;2023-08-07T11:52:19;73103.19;;;-142.11;100.00
14800;BME280;7491;57.750;11.970;2023-08-07T11:54:47;73109.31;;;-142.11;100.00
14800;BME280;7491;57.750;11.970;2023-08-07T11:57:16;73095.06;;;-142.11;100.00
14800;BME280;7491;57.750;11.970;2023-08-07T11:59:43;73095.06;;;-142.11;100.00
14800;BME280;7491;57.750;11.970;2023-08-07T12:02:11;73090.97;;;-142.11;100.00
14800;BME280;7491;57.750;11.970;2023-08-07T12:04:38;73086.91;;;-142.11;100.00
14800;BME280;7491;57.750;11.970;2023-08-07T12:07:06;73074.69;;;-142.11;100.00
14800;BME280;7491;57.750;11.970;2023-08-07T12:09:36;73082.84;;;-142.11;100.00
14800;BME280;7491;57.750;11.970;2023-08-07T12:12:03;73076.72;;;-142.11;100.00
14800;BME280;7491;57.750;11.970;2023-08-07T12:14:30;73066.53;;;-142.11;100.00
14800;BME280;7491;57.750;11.970;2023-08-07T12:16:57;73062.47;;;-142.11;100.00
14800;BME280;7491;57.750;11.970;2023-08-07T12:19:24;73050.25;;;-142.11;100.00
14800;BME280;7491;57.750;11.970;2023-08-07T12:21:50;73046.19;;;-142.11;100.00
14800;BME280;7491;57.750;11.970;2023-08-07T12:24:19;73040.06;;;-142.11;100.00
14800;BME280;7491;57.750;11.970;2023-08-07T12:26:45;73050.25;;;-142.11;100.00
14800;BME280;7491;57.750;11.970;2023-08-07T12:29:12;73042.09;;;-142.11;100.00
14800;BME280;7491;57.750;11.970;2023-08-07T12:31:39;73029.88;;;-142.11;100.00
14800;BME280;7491;57.750;11.970;2023-08-07T12:34:06;73029.88;;;-142.11;100.00
14800;BME280;7491;57.750;11.970;2023-08-07T12:36:33;73029.88;;;-142.11;100.00
14800;BME280;7491;57.750;11.970;2023-08-07T12:39:00;73025.81;;;-142.11;100.00
14800;BME280;7491;57.750;11.970;2023-08-07T12:41:29;73009.50;;;-142.11;100.00
14800;BME280;7491;57.750;11.970;2023-08-07T12:43:55;73015.63;;;-142.11;100.00
14800;BME280;7491;57.750;11.970;2023-08-07T12:46:24;73007.47;;;-142.11;100.00
14800;BME280;7491;57.750;11.970;2023-08-07T12:48:50;73001.38;;;-142.11;100.00
14800;BME280;7491;57.750;11.970;2023-08-07T12:51:17;72999.34;;;-142.11;100.00
14800;BME280;7491;57.750;11.970;2023-08-07T12:53:44;73003.41;;;-142.11;100.00
14800;BME280;7491;57.750;11.970;2023-08-07T12:56:12;72993.22;;;-142.11;100.00
14800;BME280;7491;57.750;11.970;2023-08-07T12:58:41;72989.16;;;-142.11;100.00
14800;BME280;7491;57.750;11.970;2023-08-07T13:01:08;72972.84;;;-142.11;100.00
14800;BME280;7491;57.750;11.970;2023-08-07T13:03:35;72974.91;;;-142.11;100.00
14800;BME280;7491;57.750;11.970;2023-08-07T13:06:01;72972.84;;;-142.11;100.00
14800;BME280;7491;57.750;11.970;2023-08-07T13:08:30;72981.00;;;-142.11;100.00
14800;BME280;7491;57.750;11.970;2023-08-07T13:10:58;72960.63;;;-142.11;100.00
14800;BME280;7491;57.750;11.970;2023-08-07T13:13:25;72958.59;;;-142.11;100.00
14800;BME280;7491;57.750;11.970;2023-08-07T13:15:54;72936.19;;;-142.11;100.00
14800;BME280;7491;57.750;11.970;2023-08-07T13:18:21;72952.50;;;-142.11;100.00
14800;BME280;7491;57.750;11.970;2023-08-07T13:20:48;72938.22;;;-142.11;100.00
14800;BME280;7491;57.750;11.970;2023-08-07T13:23:14;72938.22;;;-142.11;100.00
14800;BME280;7491;57.750;11.970;2023-08-07T13:25:41;72942.31;;;-142.11;100.00
14800;BME280;7491;57.750;11.970;2023-08-07T13:28:08;72934.16;;;-142.11;100.00
14800;BME280;7491;57.750;11.970;2023-08-07T13:30:35;72938.22;;;-142.11;100.00
14800;BME280;7491;57.750;11.970;2023-08-07T13:33:03;72942.31;;;-142.11;100.00
14800;BME280;7491;57.750;11.970;2023-08-07T13:35:29;72948.41;;;-142.11;100.00
14800;BME280;7491;57.750;11.970;2023-08-07T13:37:58;72938.22;;;-142.11;100.00
14800;BME280;7491;57.750;11.970;2023-08-07T13:40:24;72958.59;;;-142.11;100.00
14800;BME280;7491;57.750;11.970;2023-08-07T13:42:51;72956.56;;;-142.11;100.00
14800;BME280;7491;57.750;11.970;2023-08-07T13:45:18;72944.34;;;-142.11;100.00
14800;BME280;7491;57.750;11.970;2023-08-07T13:47:45;72954.53;;;-142.11;100.00
14800;BME280;7491;57.750;11.970;2023-08-07T13:50:14;72950.44;;;-142.11;100.00
14800;BME280;7491;57.750;11.970;2023-08-07T13:52:40;72952.50;;;-142.11;100.00
14800;BME280;7491;57.750;11.970;2023-08-07T13:55:07;72956.56;;;-142.11;100.00
14800;BME280;7491;57.750;11.970;2023-08-07T13:57:35;72956.56;;;-142.11;100.00
14800;BME280;7491;57.750;11.970;2023-08-07T14:00:03;72954.53;;;-142.11;100.00
14800;BME280;7491;57.750;11.970;2023-08-07T14:02:30;72948.41;;;-142.11;100.00
14800;BME280;7491;57.750;11.970;2023-08-07T14:05:00;72938.22;;;-142.11;100.00
14800;BME280;7491;57.750;11.970;2023-08-07T14:07:28;72948.41;;;-142.11;100.00
14800;BME280;7491;57.750;11.970;2023-08-07T14:09:55;72940.28;;;-142.11;100.00
14800;BME280;7491;57.750;11.970;2023-08-07T14:12:22;72923.97;;;-142.11;100.00
14800;BME280;7491;57.750;11.970;2023-08-07T14:14:48;72915.84;;;-142.11;100.00
14800;BME280;7491;57.750;11.970;2023-08-07T14:17:15;72917.88;;;-142.11;100.00
14800;BME280;7491;57.750;11.970;2023-08-07T14:19:42;72917.88;;;-142.11;100.00
14800;BME280;7491;57.750;11.970;2023-08-07T14:22:08;72913.78;;;-142.11;100.00
14800;BME280;7491;57.750;11.970;2023-08-07T14:24:37;72913.78;;;-142.11;100.00
14800;BME280;7491;57.750;11.970;2023-08-07T14:27:04;72917.88;;;-142.11;100.00
14800;BME280;7491;57.750;11.970;2023-08-07T14:29:30;72913.78;;;-142.11;100.00
14800;BME280;7491;57.750;11.970;2023-08-07T14:31:57;72915.84;;;-142.11;100.00
14800;BME280;7491;57.750;11.970;2023-08-07T14:34:24;72915.84;;;-142.11;100.00
14800;BME280;7491;57.750;11.970;2023-08-07T14:36:51;72913.78;;;-142.11;100.00
14800;BME280;7491;57.750;11.970;2023-08-07T14:39:19;72921.94;;;-142.11;100.00
14800;BME280;7491;57.750;11.970;2023-08-07T14:41:48;72930.09;;;-142.11;100.00
14800;BME280;7491;57.750;11.970;2023-08-07T14:44:17;72934.16;;;-142.11;100.00
14800;BME280;7491;57.750;11.970;2023-08-07T14:46:44;72948.41;;;-142.11;100.00
14800;BME280;7491;57.750;11.970;2023-08-07T14:49:11;72942.31;;;-142.11;100.00
14800;BME280;7491;57.750;11.970;2023-08-07T14:51:38;72954.53;;;-142.11;100.00
14800;BME280;7491;57.750;11.970;2023-08-07T14:54:04;72958.59;;;-142.11;100.00
14800;BME280;7491;57.750;11.970;2023-08-07T14:56:31;72950.44;;;-142.11;100.00
14800;BME280;7491;57.750;11.970;2023-08-07T14:59:00;72956.56;;;-142.11;100.00
14800;BME280;7491;57.750;11.970;2023-08-07T15:01:27;72956.56;;;-142.11;100.00
14800;BME280;7491;57.750;11.970;2023-08-07T15:03:53;72972.84;;;-142.11;100.00
14800;BME280;7491;57.750;11.970;2023-08-07T15:06:20;72948.41;;;-142.11;100.00
14800;BME280;7491;57.750;11.970;2023-08-07T15:08:48;72950.44;;;-142.11;100.00
14800;BME280;7491;57.750;11.970;2023-08-07T15:11:16;72950.44;;;-142.11;100.00
14800;BME280;7491;57.750;11.970;2023-08-07T15:13:44;72960.63;;;-142.11;100.00
14800;BME280;7491;57.750;11.970;2023-08-07T15:16:12;72970.81;;;-142.11;100.00
14800;BME280;7491;57.750;11.970;2023-08-07T15:18:40;72962.66;;;-142.11;100.00
14800;BME280;7491;57.750;11.970;2023-08-07T15:21:07;72962.66;;;-142.11;100.00
14800;BME280;7491;57.750;11.970;2023-08-07T15:23:36;72974.91;;;-142.11;100.00
14800;BME280;7491;57.750;11.970;2023-08-07T15:26:02;72985.06;;;-142.11;100.00
14800;BME280;7491;57.750;11.970;2023-08-07T15:28:29;72968.78;;;-142.11;100.00
14800;BME280;7491;57.750;11.970;2023-08-07T15:30:56;72993.22;;;-142.11;100.00
14800;BME280;7491;57.750;11.970;2023-08-07T15:33:25;72985.06;;;-142.11;100.00
14800;BME280;7491;57.750;11.970;2023-08-07T15:35:53;73005.44;;;-142.11;100.00
14800;BME280;7491;57.750;11.970;2023-08-07T15:38:20;73007.47;;;-142.11;100.00
14800;BME280;7491;57.750;11.970;2023-08-07T15:40:46;73025.81;;;-142.11;100.00
14800;BME280;7491;57.750;11.970;2023-08-07T15:43:13;73040.06;;;-142.11;100.00
14800;BME280;7491;57.750;11.970;2023-08-07T15:45:40;73033.94;;;-142.11;100.00
14800;BME280;7491;57.750;11.970;2023-08-07T15:48:06;73038.03;;;-142.11;100.00
14800;BME280;7491;57.750;11.970;2023-08-07T15:50:35;73027.84;;;-142.11;100.00
14800;BME280;7491;57.750;11.970;2023-08-07T15:53:04;73042.09;;;-142.11;100.00
14800;BME280;7491;57.750;11.970;2023-08-07T15:55:31;73040.06;;;-142.11;100.00
14800;BME280;7491;57.750;11.970;2023-08-07T15:58:01;73056.34;;;-142.11;100.00
14800;BME280;7491;57.750;11.970;2023-08-07T16:00:29;73066.53;;;-142.11;100.00
14800;BME280;7491;57.750;11.970;2023-08-07T16:03:00;73056.34;;;-142.11;100.00
14800;BME280;7491;57.750;11.970;2023-08-07T16:05:27;73060.44;;;-142.11;100.00
14800;BME280;7491;57.750;11.970;2023-08-07T16:07:55;73064.50;;;-142.11;100.00
14800;BME280;7491;57.750;11.970;2023-08-07T16:10:22;73072.66;;;-142.11;100.00
14800;BME280;7491;57.750;11.970;2023-08-07T16:12:50;73080.81;;;-142.11;100.00
14800;BME280;7491;57.750;11.970;2023-08-07T16:15:18;73072.66;;;-142.11;100.00
14800;BME280;7491;57.750;11.970;2023-08-07T16:17:45;73090.97;;;-142.11;100.00
14800;BME280;7491;57.750;11.970;2023-08-07T16:20:12;73095.06;;;-142.11;100.00
14800;BME280;7491;57.750;11.970;2023-08-07T16:22:39;73086.91;;;-142.11;100.00
14800;BME280;7491;57.750;11.970;2023-08-07T16:25:08;73097.09;;;-142.11;100.00
14800;BME280;7491;57.750;11.970;2023-08-07T16:27:35;73111.34;;;-142.11;100.00
14800;BME280;7491;57.750;11.970;2023-08-07T16:30:04;73113.38;;;-142.11;100.00
14800;BME280;7491;57.750;11.970;2023-08-07T16:32:31;73127.63;;;-142.11;100.00
14800;BME280;7491;57.750;11.970;2023-08-07T16:34:58;73127.63;;;-142.11;100.00
14800;BME280;7491;57.750;11.970;2023-08-07T16:37:25;73119.50;;;-142.11;100.00
14800;BME280;7491;57.750;11.970;2023-08-07T16:39:52;73119.50;;;-142.11;100.00
14800;BME280;7491;57.750;11.970;2023-08-07T16:42:21;73123.56;;;-142.11;100.00
14800;BME280;7491;57.750;11.970;2023-08-07T16:44:51;73123.56;;;-142.11;100.00
14800;BME280;7491;57.750;11.970;2023-08-07T16:47:17;73131.72;;;-142.11;100.00
14800;BME280;7491;57.750;11.970;2023-08-07T16:49:44;73150.03;;;-142.11;100.00
14800;BME280;7491;57.750;11.970;2023-08-07T16:52:11;73145.97;;;-142.11;100.00
14800;BME280;7491;57.750;11.970;2023-08-07T16:54:38;73160.22;;;-142.11;100.00
14800;BME280;7491;57.750;11.970;2023-08-07T16:57:05;73145.97;;;-142.11;100.00
14800;BME280;7491;57.750;11.970;2023-08-07T16:59:34;73139.88;;;-142.11;100.00
14800;BME280;7491;57.750;11.970;2023-08-07T17:02:01;73148.00;;;-142.11;100.00
14800;BME280;7491;57.750;11.970;2023-08-07T17:04:32;73152.09;;;-142.11;100.00
14800;BME280;7491;57.750;11.970;2023-08-07T17:07:00;73141.91;;;-142.11;100.00
14800;BME280;7491;57.750;11.970;2023-08-07T17:09:28;73143.94;;;-142.11;100.00
14800;BME280;7491;57.750;11.970;2023-08-07T17:11:54;73164.31;;;-142.11;100.00
14800;BME280;7491;57.750;11.970;2023-08-07T17:14:24;73156.16;;;-142.11;100.00
14800;BME280;7491;57.750;11.970;2023-08-07T17:16:52;73152.09;;;-142.11;100.00
14800;BME280;7491;57.750;11.970;2023-08-07T17:19:19;73174.47;;;-142.11;100.00
14800;BME280;7491;57.750;11.970;2023-08-07T17:21:47;73160.22;;;-142.11;100.00
14800;BME280;7491;57.750;11.970;2023-08-07T17:24:13;73150.03;;;-142.11;100.00
14800;BME280;7491;57.750;11.970;2023-08-07T17:26:41;73152.09;;;-142.11;100.00
14800;BME280;7491;57.750;11.970;2023-08-07T17:29:15;73148.00;;;-142.11;100.00
14800;BME280;7491;57.750;11.970;2023-08-07T17:31:42;73152.09;;;-142.11;100.00
14800;BME280;7491;57.750;11.970;2023-08-07T17:34:12;73145.97;;;-142.11;100.00
14800;BME280;7491;57.750;11.970;2023-08-07T17:36:39;73139.88;;;-142.11;100.00
14800;BME280;7491;57.750;11.970;2023-08-07T17:39:06;73137.81;;;-142.11;100.00
14800;BME280;7491;57.750;11.970;2023-08-07T17:41:35;73145.97;;;-142.11;100.00
14800;BME280;7491;57.750;11.970;2023-08-07T17:44:02;73148.00;;;-142.11;100.00
14800;BME280;7491;57.750;11.970;2023-08-07T17:46:29;73143.94;;;-142.11;100.00
14800;BME280;7491;57.750;11.970;2023-08-07T17:48:57;73152.09;;;-142.11;100.00
14800;BME280;7491;57.750;11.970;2023-08-07T17:51:25;73150.03;;;-142.11;100.00
14800;BME280;7491;57.750;11.970;2023-08-07T17:53:54;73158.19;;;-142.11;100.00
14800;BME280;7491;57.750;11.970;2023-08-07T17:56:20;73152.09;;;-142.11;100.00
14800;BME280;7491;57.750;11.970;2023-08-07T17:58:49;73160.22;;;-142.11;100.00
14800;BME280;7491;57.750;11.970;2023-08-07T18:01:16;73172.44;;;-142.11;100.00
14800;BME280;7491;57.750;11.970;2023-08-07T18:03:43;73168.38;;;-142.11;100.00
14800;BME280;7491;57.750;11.970;2023-08-07T18:06:11;73162.25;;;-142.11;100.00
14800;BME280;7491;57.750;11.970;2023-08-07T18:08:40;73152.09;;;-142.11;100.00
14800;BME280;7491;57.750;11.970;2023-08-07T18:11:06;73158.19;;;-142.11;100.00
14800;BME280;7491;57.750;11.970;2023-08-07T18:13:33;73160.22;;;-142.11;100.00
14800;BME280;7491;57.750;11.970;2023-08-07T18:16:00;73170.41;;;-142.11;100.00
14800;BME280;7491;57.750;11.970;2023-08-07T18:18:27;73162.25;;;-142.11;100.00
14800;BME280;7491;57.750;11.970;2023-08-07T18:20:54;73162.25;;;-142.11;100.00
14800;BME280;7491;57.750;11.970;2023-08-07T18:23:20;73178.56;;;-142.11;100.00
14800;BME280;7491;57.750;11.970;2023-08-07T18:25:49;73168.38;;;-142.11;100.00
14800;BME280;7491;57.750;11.970;2023-08-07T18:28:16;73180.59;;;-142.11;100.00
14800;BME280;7491;57.750;11.970;2023-08-07T18:30:42;73176.53;;;-142.11;100.00
14800;BME280;7491;57.750;11.970;2023-08-07T18:33:12;73184.66;;;-142.11;100.00
14800;BME280;7491;57.750;11.970;2023-08-07T18:35:39;73184.66;;;-142.11;100.00
14800;BME280;7491;57.750;11.970;2023-08-07T18:38:06;73196.88;;;-142.11;100.00
14800;BME280;7491;57.750;11.970;2023-08-07T18:40:33;73203.00;;;-142.11;100.00
14800;BME280;7491;57.750;11.970;2023-08-07T18:43:01;73196.88;;;-142.11;100.00
14800;BME280;7491;57.750;11.970;2023-08-07T18:45:28;73194.84;;;-142.11;100.00
14800;BME280;7491;57.750;11.970;2023-08-07T18:47:54;73203.00;;;-142.11;100.00
14800;BME280;7491;57.750;11.970;2023-08-07T18:50:22;73203.00;;;-142.11;100.00
14800;BME280;7491;57.750;11.970;2023-08-07T18:52:48;73186.72;;;-142.11;100.00
14800;BME280;7491;57.750;11.970;2023-08-07T18:55:15;73194.84;;;-142.11;100.00
14800;BME280;7491;57.750;11.970;2023-08-07T18:57:42;73203.00;;;-142.11;100.00
14800;BME280;7491;57.750;11.970;2023-08-07T19:00:11;73182.63;;;-142.11;100.00
14800;BME280;7491;57.750;11.970;2023-08-07T19:02:37;73176.53;;;-142.11;100.00
14800;BME280;7491;57.750;11.970;2023-08-07T19:05:05;73176.53;;;-142.11;100.00
14800;BME280;7491;57.750;11.970;2023-08-07T19:07:32;73180.59;;;-142.11;100.00
14800;BME280;7491;57.750;11.970;2023-08-07T19:09:59;73178.56;;;-142.11;100.00
14800;BME280;7491;57.750;11.970;2023-08-07T19:12:26;73178.56;;;-142.11;100.00
14800;BME280;7491;57.750;11.970;2023-08-07T19:14:52;73174.47;;;-142.11;100.00
14800;BME280;7491;57.750;11.970;2023-08-07T19:17:20;73172.44;;;-142.11;100.00
14800;BME280;7491;57.750;11.970;2023-08-07T19:19:47;73164.31;;;-142.11;100.00
14800;BME280;7491;57.750;11.970;2023-08-07T19:22:14;73170.41;;;-142.11;100.00
14800;BME280;7491;57.750;11.970;2023-08-07T19:24:40;73158.19;;;-142.11;100.00
14800;BME280;7491;57.750;11.970;2023-08-07T19:27:07;73148.00;;;-142.11;100.00
14800;BME280;7491;57.750;11.970;2023-08-07T19:29:34;73150.03;;;-142.11;100.00
14800;BME280;7491;57.750;11.970;2023-08-07T19:32:00;73152.09;;;-142.11;100.00
14800;BME280;7491;57.750;11.970;2023-08-07T19:34:28;73143.94;;;-142.11;100.00
14800;BME280;7491;57.750;11.970;2023-08-07T19:36:55;73156.16;;;-142.11;100.00
14800;BME280;7491;57.750;11.970;2023-08-07T19:39:22;73160.22;;;-142.11;100.00
14800;BME280;7491;57.750;11.970;2023-08-07T19:41:50;73178.56;;;-142.11;100.00
14800;BME280;7491;57.750;11.970;2023-08-07T19:44:17;73172.44;;;-142.11;100.00
14800;BME280;7491;57.750;11.970;2023-08-07T19:46:43;73158.19;;;-142.11;100.00
14800;BME280;7491;57.750;11.970;2023-08-07T19:49:10;73150.03;;;-142.11;100.00
14800;BME280;7491;57.750;11.970;2023-08-07T19:51:38;73141.91;;;-142.11;100.00
14800;BME280;7491;57.750;11.970;2023-08-07T19:54:05;73166.34;;;-142.11;100.00
14800;BME280;7491;57.750;11.970;2023-08-07T19:56:32;73162.25;;;-142.11;100.00
14800;BME280;7491;57.750;11.970;2023-08-07T19:58:58;73156.16;;;-142.11;100.00
14800;BME280;7491;57.750;11.970;2023-08-07T20:01:27;73162.25;;;-142.11;100.00
14800;BME280;7491;57.750;11.970;2023-08-07T20:03:54;73133.75;;;-142.11;100.00
14800;BME280;7491;57.750;11.970;2023-08-07T20:06:21;73141.91;;;-142.11;100.00
14800;BME280;7491;57.750;11.970;2023-08-07T20:08:49;73133.75;;;-142.11;100.00
14800;BME280;7491;57.750;11.970;2023-08-07T20:11:16;73145.97;;;-142.11;100.00
14800;BME280;7491;57.750;11.970;2023-08-07T20:13:43;73154.13;;;-142.11;100.00
14800;BME280;7491;57.750;11.970;2023-08-07T20:16:10;73166.34;;;-142.11;100.00
14800;BME280;7491;57.750;11.970;2023-08-07T20:18:37;73164.31;;;-142.11;100.00
14800;BME280;7491;57.750;11.970;2023-08-07T20:21:04;73145.97;;;-142.11;100.00
14800;BME280;7491;57.750;11.970;2023-08-07T20:23:31;73143.94;;;-142.11;100.00
14800;BME280;7491;57.750;11.970;2023-08-07T20:26:00;73145.97;;;-142.11;100.00
14800;BME280;7491;57.750;11.970;2023-08-07T20:28:26;73168.38;;;-142.11;100.00
14800;BME280;7491;57.750;11.970;2023-08-07T20:30:53;73156.16;;;-142.11;100.00
14800;BME280;7491;57.750;11.970;2023-08-07T20:33:20;73152.09;;;-142.11;100.00
14800;BME280;7491;57.750;11.970;2023-08-07T20:35:47;73160.22;;;-142.11;100.00
14800;BME280;7491;57.750;11.970;2023-08-07T20:38:14;73139.88;;;-142.11;100.00
14800;BME280;7491;57.750;11.970;2023-08-07T20:41:14;73158.19;;;-142.11;100.00
14800;BME280;7491;57.750;11.970;2023-08-07T20:43:56;73148.00;;;-142.11;100.00
14800;BME280;7491;57.750;11.970;2023-08-07T20:46:23;73139.88;;;-142.11;100.00
14800;BME280;7491;57.750;11.970;2023-08-07T20:48:51;73137.81;;;-142.11;100.00
14800;BME280;7491;57.750;11.970;2023-08-07T20:51:18;73133.75;;;-142.11;100.00
14800;BME280;7491;57.750;11.970;2023-08-07T20:53:53;73133.75;;;-142.11;100.00
14800;BME280;7491;57.750;11.970;2023-08-07T20:56:34;73139.88;;;-142.11;100.00
14800;BME280;7491;57.750;11.970;2023-08-07T20:59:03;73164.31;;;-142.11;100.00
14800;BME280;7491;57.750;11.970;2023-08-07T21:01:30;73133.75;;;-142.11;100.00
14800;BME280;7491;57.750;11.970;2023-08-07T21:04:17;73141.91;;;-142.11;100.00
14800;BME280;7491;57.750;11.970;2023-08-07T21:06:54;73141.91;;;-142.11;100.00
14800;BME280;7491;57.750;11.970;2023-08-07T21:09:21;73115.41;;;-142.11;100.00
14800;BME280;7491;57.750;11.970;2023-08-07T21:11:48;73113.38;;;-142.11;100.00
14800;BME280;7491;57.750;11.970;2023-08-07T21:18:05;73123.56;;;-142.11;100.00
14800;BME280;7491;57.750;11.970;2023-08-07T21:20:44;73111.34;;;-142.11;100.00
14800;BME280;7491;57.750;11.970;2023-08-07T21:23:11;73107.28;;;-142.11;100.00
14800;BME280;7491;57.750;11.970;2023-08-07T21:28:31;73111.34;;;-142.11;100.00
14800;BME280;7491;57.750;11.970;2023-08-07T21:30:58;73113.38;;;-142.11;100.00
14800;BME280;7491;57.750;11.970;2023-08-07T21:33:29;73111.34;;;-142.11;100.00
14800;BME280;7491;57.750;11.970;2023-08-07T21:35:57;73105.25;;;-142.11;100.00
14800;BME280;7491;57.750;11.970;2023-08-07T21:38:26;73105.25;;;-142.11;100.00
14800;BME280;7491;57.750;11.970;2023-08-07T21:40:53;73109.31;;;-142.11;100.00
14800;BME280;7491;57.750;11.970;2023-08-07T21:43:28;73121.53;;;-142.11;100.00
14800;BME280;7491;57.750;11.970;2023-08-07T21:45:55;73119.50;;;-142.11;100.00
14800;BME280;7491;57.750;11.970;2023-08-07T21:48:22;73097.09;;;-142.11;100.00
14800;BME280;7491;57.750;11.970;2023-08-07T21:50:58;73099.13;;;-142.11;100.00
14800;BME280;7491;57.750;11.970;2023-08-07T21:53:25;73095.06;;;-142.11;100.00
14800;BME280;7491;57.750;11.970;2023-08-07T21:55:56;73105.25;;;-142.11;100.00
14800;BME280;7491;57.750;11.970;2023-08-07T21:58:23;73093.03;;;-142.11;100.00
14800;BME280;7491;57.750;11.970;2023-08-07T22:00:50;73099.13;;;-142.11;100.00
14800;BME280;7491;57.750;11.970;2023-08-07T22:03:17;73095.06;;;-142.11;100.00